Weather observations for the past three days for
Spearfish / Clyde Ice
Metric (Imperial)
Date Time (mdt) Wind (kph) Vis. (km) Weather Sky Cond. Temperature (ºC) Relative Humidity Wind Chill (°C) Heat Index (°C) Pressure Precipitation (cm)
Air Dwpt 6 hour altimeter (cm) sea level (mb) 1 hr 3 hr 6 hr
Max. Min.
05 17:15 NE 15 16.09 Fair CLR 31 8 24% 29 76.17 0.0
05 16:55 N 15 16.09 Thunderstorm in Vicinity CLR 32 8 22% 30 76.17 0.0
05 16:35 N 13 16.09 Fair CLR 33 8 21% 31 76.15 0.0
05 16:15 NE 15 16.09 Fair CLR 34 8 20% 32 76.15 0.0
05 15:55 N 17 G 26 16.09 Fair CLR 34 8 20% 32 76.17 0.0
05 15:35 NE 13 16.09 Fair CLR 34 8 20% 32 76.17 0.0
05 14:55 NE 17 G 28 16.09 Fair CLR 33 7 20% 31 76.2 0.0
05 14:35 E 17 16.09 Fair CLR 33 7 20% 31 76.23 0.0
05 14:15 E 19 16.09 Fair CLR 32 7 21% 30 76.25 0.0
05 13:55 NE 13 16.09 Fair CLR 31 7 22% 29 76.25 0.0
05 11:55 NE 9 G 19 16.09 Fair CLR 28 6 25% 27 76.3 0.0
05 11:35 NE 19 16.09 Fair CLR 28 6 25% 27 76.3 0.0
05 11:15 NE 19 16.09 Fair CLR 27 7 28% 26 76.28 0.0
05 10:55 NE 20 16.09 Fair CLR 27 8 30% 26 76.28 0.0
05 10:35 NE 20 16.09 Fair CLR 27 8 30% 26 76.25 0.0
05 10:15 NE 15 G 30 16.09 Fair CLR 26 8 32% 26 76.23 0.0
05 09:55 NE 22 G 33 16.09 Fair CLR 27 6 26% 26 76.23 0.0
05 09:35 NE 19 16.09 Fair CLR 29 6 23% 28 76.23 0.0
05 09:15 E 11 16.09 Fair CLR 28 6 25% 27 76.2 0.0
05 08:55 Calm 16.09 Fair CLR 28 6 25% 27 76.17 0.0
05 08:35 Calm 16.09 Fair CLR 25 6 30% 25 76.17 0.0
05 08:15 Calm 16.09 Fair CLR 26 6 28% 26 76.17 0.0
05 07:55 Vrbl 9 16.09 Fair CLR 24 6 31% 25 76.15 0.0
05 07:35 W 13 G 24 16.09 Fair CLR 24 6 31% 25 76.15 0.0
05 07:15 W 15 16.09 Fair CLR 23 6 33% 76.12 0.0
05 06:55 W 9 16.09 Fair CLR 21 6 38% 76.12 0.0
05 05:35 Calm 16.09 Fair CLR 20 6 40% 76.05 0.0
05 05:15 NW 7 16.09 Fair CLR 21 6 38% 76.07 0.0
05 04:55 Calm 16.09 Fair CLR 21 6 38% 76.07 0.0
05 04:35 SW 11 G 20 16.09 Fair CLR 24 6 31% 25 76.05 0.0
05 04:15 SW 17 16.09 Fair CLR 24 5 29% 25 76.05 0.0
05 03:55 SW 15 16.09 Fair CLR 25 4 26% 25 76.05 0.0
05 03:35 SW 19 16.09 Fair CLR 25 4 26% 25 76.05 0.0
05 03:15 SW 20 16.09 Fair CLR 26 4 24% 26 76.05 0.0
05 02:55 SW 22 16.09 Fair CLR 27 4 23% 26 76.05 0.0
05 02:35 SW 22 16.09 Fair CLR 27 4 23% 26 76.02 0.0
05 02:15 SW 24 16.09 Fair CLR 27 5 24% 26 76.02 0.0
05 01:55 S 24 16.09 Fair CLR 27 5 24% 26 76.02 0.0
05 01:35 S 24 16.09 Fair CLR 27 5 24% 26 76 0.0
05 01:15 S 19 16.09 Fair CLR 25 6 30% 25 76 0.0
05 00:55 S 20 16.09 Fair CLR 25 6 30% 25 76 0.0
05 00:35 S 20 16.09 Fair CLR 27 6 26% 26 76 0.0
05 00:15 S 19 G 31 16.09 Fair CLR 29 6 23% 28 76 0.0
04 23:55 S 22 16.09 Fair CLR 29 6 23% 28 76 0.0
04 23:35 S 20 16.09 Fair CLR 26 7 30% 26 75.97 0.0
04 23:15 S 22 16.09 Fair CLR 25 8 34% 26 76 0.0
04 22:55 S 19 16.09 Fair CLR 26 9 34% 26 75.97 0.0
04 22:35 S 20 16.09 Fair CLR 26 10 37% 26 75.97 0.0
04 22:15 S 17 16.09 Fair CLR 26 12 42% 26 75.97 0.0
04 21:55 S 20 16.09 Fair CLR 27 13 42% 27 75.97 0.0
04 21:35 S 17 G 28 16.09 Fair CLR 28 13 40% 28 76 0.0
04 21:15 S 22 16.09 Fair CLR 28 14 42% 28 75.97 0.0
04 20:55 S 24 16.09 Fair CLR 28 13 40% 28 75.97 0.0
04 20:35 S 17 16.09 Fair CLR 28 12 37% 27 75.97 0.0
04 20:15 S 15 16.09 Fair CLR 27 9 32% 27 75.95 0.0
04 19:55 S 9 16.09 Fair CLR 26 5 26% 26 75.92 0.0
04 19:35 SE 19 16.09 Fair CLR 29 7 25% 28 75.92 0.0
04 19:15 SE 15 16.09 Fair CLR 30 4 19% 28 75.9 0.0
04 18:55 S 15 16.09 Fair CLR 33 4 16% 31 75.9 0.0
04 18:35 Vrbl 9 G 30 16.09 Fair CLR 34 6 17% 32 75.87 0.0
04 18:15 S 24 16.09 Fair CLR 34 10 23% 32 75.87 0.0
04 17:55 SE 13 G 41 16.09 Fair CLR 35 8 19% 33 75.87 0.0
04 17:35 SE 37 G 46 16.09 Fair and Breezy CLR 34 10 23% 32 75.84 0.0
04 17:15 SE 31 16.09 Fair CLR 35 10 22% 33 75.84 0.0
04 16:55 SE 26 G 48 16.09 Fair CLR 35 10 22% 33 75.87 0.0
04 16:35 SE 26 G 43 16.09 Fair CLR 35 10 22% 33 75.84 0.0
04 16:15 SE 30 G 46 16.09 Fair CLR 35 10 22% 33 75.84 0.0
04 15:55 SE 33 G 50 16.09 Fair and Breezy CLR 35 10 22% 33 75.84 0.0
04 15:35 SE 33 G 48 16.09 Fair and Breezy CLR 34 10 23% 32 75.84 0.0
04 15:15 SE 35 16.09 Fair and Breezy CLR 35 10 22% 33 75.84 0.0
04 14:55 SE 31 G 46 16.09 Fair CLR 35 10 22% 33 75.87 0.0
04 14:35 SE 31 G 44 16.09 A Few Clouds FEW120 35 10 22% 33 75.87 0.0
04 14:15 SE 28 G 41 16.09 Fair CLR 35 9 20% 33 75.87 0.0
04 13:55 SE 22 G 33 16.09 Partly Cloudy SCT110 35 8 19% 33 75.9 0.0
04 13:35 SE 28 16.09 A Few Clouds FEW110 35 7 18% 33 75.9 0.0
04 13:15 S 19 G 39 16.09 A Few Clouds FEW110 36 7 17% 34 75.92 0.0
04 12:55 SE 6 G 19 16.09 Partly Cloudy SCT110 36 6 16% 34 75.92 0.0
04 12:35 SE 20 G 30 16.09 Partly Cloudy SCT110 34 8 20% 32 75.95 0.0
04 12:15 S 24 G 39 16.09 A Few Clouds FEW110 35 8 19% 33 75.97 0.0
04 11:55 S 17 G 39 16.09 A Few Clouds FEW100 34 8 20% 32 76 0.0
04 11:35 S 30 16.09 Fair CLR 34 7 19% 32 76 0.0
04 11:15 SE 26 G 41 16.09 Fair CLR 34 8 20% 32 76.02 0.0
04 10:55 S 26 16.09 Fair CLR 34 8 20% 32 76.02 0.0
04 10:35 S 28 G 44 16.09 Fair CLR 33 8 21% 31 76.02 0.0
04 10:15 S 30 G 44 16.09 Fair CLR 33 8 21% 31 76.02 0.0
04 09:35 S 26 G 43 16.09 Fair CLR 32 9 24% 30 76.02 0.0
04 09:15 S 31 16.09 Fair CLR 31 9 25% 29 76 0.0
04 08:55 S 31 G 43 16.09 Fair CLR 31 9 25% 29 76 0.0
04 08:35 S 26 16.09 Fair CLR 30 8 25% 28 76 0.0
04 08:15 S 15 16.09 Fair CLR 26 7 30% 26 76 0.0
04 07:55 Calm 16.09 Fair CLR 21 5 35% 76 0.0
04 07:35 Calm 16.09 Fair CLR 20 5 38% 76 0.0
04 07:15 Calm 16.09 Fair CLR 20 4 35% 76 0.0
04 06:55 Calm 16.09 Fair CLR 19 4 37% 75.97 0.0
04 06:35 Vrbl 7 16.09 Fair CLR 20 4 35% 75.97 0.0
04 06:15 NW 13 16.09 Fair CLR 19 4 37% 75.95 0.0
04 05:55 NW 7 16.09 Fair CLR 18 4 40% 75.92 0.0
04 05:35 NW 6 16.09 Fair CLR 19 3 35% 75.92 0.0
04 05:15 Calm 16.09 Fair CLR 21 2 29% 75.95 0.0
04 04:55 NW 7 16.09 Fair CLR 20 3 33% 75.95 0.0
04 04:35 Calm 16.09 Fair CLR 22 1 25% 75.95 0.0
04 04:15 SW 11 G 28 16.09 Fair CLR 25 0 19% 25 75.95 0.0
04 03:55 S 22 G 35 16.09 Fair CLR 25 1 21% 25 75.95 0.0
04 03:35 S 22 16.09 Fair CLR 25 2 22% 25 75.95 0.0
04 03:15 S 24 G 35 16.09 Fair CLR 25 3 24% 25 75.95 0.0
04 02:55 S 26 G 39 16.09 Fair CLR 25 3 24% 25 75.92 0.0
04 02:35 S 26 16.09 Fair CLR 24 4 27% 25 75.92 0.0
04 02:15 S 28 G 39 16.09 Fair CLR 24 5 29% 25 75.95 0.0
04 01:55 S 30 16.09 Fair CLR 24 6 31% 25 75.95 0.0
04 01:35 S 33 G 46 16.09 Fair and Breezy CLR 24 7 34% 25 75.97 0.0
04 01:15 S 33 G 46 16.09 Fair and Breezy CLR 24 8 36% 25 75.97 0.0
04 00:55 S 41 G 57 16.09 Fair and Breezy CLR 24 9 39% 25 75.97 0.0
04 00:35 S 37 G 52 16.09 Fair and Breezy CLR 24 9 39% 25 75.97 0.0
04 00:15 S 28 16.09 Fair CLR 22 9 44% 76 0.0
03 23:55 E 24 G 33 16.09 Fair CLR 22 10 47% 76.02 0.0
03 23:35 E 24 16.09 Fair CLR 22 10 47% 76.02 0.0
03 23:15 SE 22 16.09 Fair CLR 22 10 47% 76.02 0.0
03 22:55 SE 20 16.09 Fair CLR 22 10 47% 76 0.0
03 22:35 SE 17 16.09 Fair CLR 21 9 46% 76.02 0.0
03 22:15 SE 15 16.09 Fair CLR 21 9 46% 76 0.0
03 21:55 SE 17 16.09 Fair CLR 21 9 46% 76.02 0.0
03 21:35 SE 15 16.09 Fair CLR 22 9 44% 76.02 0.0
03 21:15 SE 9 16.09 Fair CLR 21 8 43% 76 0.0
03 20:55 Vrbl 11 16.09 Fair CLR 23 8 38% 76 0.0
03 20:35 SE 13 16.09 Fair CLR 22 8 41% 75.97 0.0
03 20:15 SE 20 16.09 Fair CLR 24 8 36% 25 75.95 0.0
03 19:55 SE 22 16.09 Fair CLR 25 8 34% 26 75.92 0.0
03 19:35 SE 19 16.09 Fair CLR 25 8 34% 26 75.92 0.0
03 19:15 E 24 16.09 Fair CLR 27 7 28% 26 75.9 0.0
03 18:55 E 15 16.09 Fair CLR 28 6 25% 27 75.9 0.0
03 18:35 E 19 16.09 Fair CLR 29 5 22% 28 75.87 0.0
03 18:15 E 20 G 31 16.09 Fair CLR 30 5 20% 28 75.87 0.0
03 17:55 E 22 16.09 Fair CLR 30 6 22% 28 75.87 0.0
03 17:35 E 19 16.09 Fair CLR 30 6 22% 28 75.87 0.0
03 17:15 E 24 16.09 Fair CLR 31 6 21% 29 75.84 0.0
03 16:55 E 19 G 31 16.09 Fair CLR 31 6 21% 29 75.84 0.0
03 16:15 E 24 16.09 Fair CLR 31 6 21% 29 75.82 0.0
03 15:55 E 22 G 35 16.09 Fair CLR 31 6 21% 29 75.84 0.0
03 15:35 E 26 16.09 Fair CLR 31 7 22% 29 75.84 0.0
03 15:15 E 17 G 30 16.09 Fair CLR 30 6 22% 28 75.84 0.0
03 14:55 E 22 G 33 16.09 Fair CLR 30 6 22% 28 75.87 0.0
03 14:35 E 11 G 22 16.09 Fair CLR 29 6 23% 28 75.87 0.0
03 14:15 E 13 16.09 Fair CLR 29 6 23% 28 75.87 0.0
03 13:55 NE 17 G 26 16.09 Fair CLR 30 8 25% 28 75.9 0.0
03 13:35 E 15 16.09 Fair CLR 29 6 23% 28 75.9 0.0
03 13:15 Vrbl 9 G 28 16.09 Fair CLR 28 7 26% 27 75.92 0.0
03 12:55 N 19 16.09 Fair CLR 28 8 28% 27 75.92 0.0
03 12:35 NE 15 G 24 16.09 Fair CLR 28 8 28% 27 75.92 0.0
03 12:15 NE 22 16.09 Fair CLR 28 7 26% 27 75.92 0.0
03 11:55 NE 24 16.09 Fair CLR 29 5 22% 28 75.92 0.0
03 11:35 N 22 16.09 Fair CLR 28 6 25% 27 75.92 0.0
03 11:15 N 15 G 26 16.09 Fair CLR 28 5 23% 27 75.92 0.0
03 10:55 N 13 16.09 Fair CLR 28 3 20% 27 75.92 0.0
03 10:35 N 17 16.09 Fair CLR 28 4 21% 27 75.92 0.0
03 10:15 N 15 16.09 Fair CLR 28 5 23% 27 75.92 0.0
03 09:55 NW 9 G 24 16.09 Fair CLR 27 5 24% 26 75.92 0.0
03 09:35 Vrbl 11 16.09 Fair CLR 27 6 26% 26 75.9 0.0
03 09:15 W 13 16.09 Fair CLR 25 5 28% 25 75.87 0.0
03 08:55 SW 11 16.09 Fair CLR 24 5 29% 25 75.87 0.0
03 08:35 W 15 16.09 Fair CLR 24 5 29% 25 75.87 0.0
03 08:15 W 13 G 24 16.09 Fair CLR 24 5 29% 25 75.87 0.0
03 07:55 W 11 16.09 Fair CLR 24 6 31% 25 75.87 0.0
03 07:35 SW 22 16.09 Fair CLR 24 5 29% 25 75.84 0.0
03 07:15 W 19 16.09 Fair CLR 23 5 31% 75.82 0.0
03 06:35 SW 24 G 37 16.09 Fair CLR 24 4 27% 25 75.79 0.0
03 06:15 SW 20 G 33 16.09 Fair CLR 24 4 27% 25 75.77 0.0
03 05:55 SW 28 G 46 16.09 Fair CLR 24 4 27% 25 75.77 0.0
03 05:35 SW 26 G 43 16.09 Fair CLR 25 4 26% 25 75.77 0.0
03 05:15 SW 33 G 43 16.09 Fair and Breezy CLR 24 4 27% 25 75.74 0.0
03 04:55 SW 35 G 48 16.09 Fair and Breezy CLR 25 4 26% 25 75.74 0.0
03 04:35 SW 31 G 44 16.09 Fair CLR 25 4 26% 25 75.72 0.0
03 04:15 SW 39 16.09 Fair and Breezy CLR 25 4 26% 25 75.72 0.0
03 03:55 SW 33 G 52 16.09 Fair and Breezy CLR 26 4 24% 26 75.74 0.0
03 03:35 SW 31 G 44 16.09 Fair CLR 26 4 24% 26 75.72 0.0
03 03:15 SW 28 16.09 Fair CLR 25 4 26% 25 75.72 0.0
03 02:55 SW 30 G 41 16.09 Fair CLR 25 5 28% 25 75.72 0.0
03 02:35 SW 26 16.09 Fair CLR 25 6 30% 25 75.72 0.0
03 02:15 SW 28 G 39 16.09 Fair CLR 25 6 30% 25 75.72 0.0
03 01:55 SW 31 G 44 16.09 Fair CLR 26 6 28% 26 75.72 0.0
03 01:35 SW 33 G 43 16.09 Fair and Breezy CLR 26 6 28% 26 75.72 0.0
03 01:15 SW 22 16.09 Fair CLR 25 6 30% 25 75.74 0.0
03 00:55 SW 22 G 31 16.09 Fair CLR 25 6 30% 25 75.72 0.0
03 00:35 SW 24 16.09 Fair CLR 25 5 28% 25 75.74 0.0
03 00:15 S 22 16.09 Fair CLR 24 6 31% 25 75.74 0.0
02 23:55 S 22 16.09 Fair CLR 24 6 31% 25 75.74 0.0
02 23:35 S 22 16.09 Fair CLR 23 6 33% 75.74 0.0
02 23:15 S 20 16.09 Fair CLR 22 6 36% 75.77 0.0
02 22:55 S 22 16.09 Fair CLR 23 6 33% 75.79 0.0
02 22:35 S 19 16.09 Fair CLR 24 6 31% 25 75.79 0.0
02 22:15 S 7 16.09 Fair CLR 22 6 36% 75.82 0.0
02 21:55 Calm 16.09 Fair CLR 21 6 38% 75.82 0.0
02 21:35 Calm 16.09 Fair CLR 23 5 31% 75.82 0.0
02 21:15 S 17 16.09 Fair CLR 22 6 36% 75.79 0.0
02 20:55 S 15 16.09 Fair CLR 22 6 36% 75.79 0.0
02 20:35 S 17 16.09 Fair CLR 23 6 33% 75.77 0.0
02 20:15 S 19 16.09 Fair CLR 23 6 33% 75.77 0.0
02 19:55 S 19 16.09 Fair CLR 24 5 29% 25 75.74 0.0
02 19:35 S 13 16.09 Fair CLR 26 4 24% 26 75.74 0.0
02 19:15 SW 9 16.09 Fair CLR 28 4 21% 27 75.74 0.0
02 18:55 SW 11 G 20 16.09 Fair CLR 30 4 19% 28 75.74 0.0
02 18:35 W 17 G 30 16.09 Fair CLR 31 3 17% 29 75.74 0.0
02 18:15 W 19 G 39 16.09 Fair CLR 32 3 16% 30 75.74 0.0
02 17:55 W 22 G 41 16.09 Fair CLR 32 3 16% 30 75.74 0.0
02 17:35 W 22 G 44 16.09 Fair CLR 33 2 14% 31 75.74 0.0
Date Time (mdt) Wind (kph) Vis. (km) Weather Sky Cond. Air Dwpt Max. Min. Relative Humidity Wind Chill (°C) Heat Index (°C) altimeter (cm) sea level (mb) 1 hr 3 hr 6 hr
6 hour
Temperature (ºC) Pressure Precipitation (cm)